createdAt,value
2023-09-08T00:00:11.334Z,14.10
2023-09-08T00:02:39.694Z,14.10
2023-09-08T00:05:08.236Z,14.00
2023-09-08T00:07:36.464Z,14.00
2023-09-08T00:10:04.845Z,14.00
2023-09-08T00:12:33.181Z,14.00
2023-09-08T00:15:02.983Z,13.90
2023-09-08T00:17:31.339Z,13.90
2023-09-08T00:19:59.706Z,13.90
2023-09-08T00:22:28.026Z,13.80
2023-09-08T00:24:56.548Z,13.80
2023-09-08T00:27:24.827Z,13.80
2023-09-08T00:29:53.511Z,13.80
2023-09-08T00:32:23.129Z,13.70
2023-09-08T00:34:51.382Z,13.70
2023-09-08T00:37:19.645Z,13.70
2023-09-08T00:39:48.144Z,13.70
2023-09-08T00:42:16.441Z,13.70
2023-09-08T00:44:44.827Z,13.70
2023-09-08T00:47:13.621Z,13.70
2023-09-08T00:49:43.507Z,13.80
2023-09-08T00:52:11.870Z,13.80
2023-09-08T00:54:40.128Z,13.80
2023-09-08T00:57:08.898Z,13.80
2023-09-08T00:59:37.759Z,13.90
2023-09-08T01:02:07.301Z,13.90
2023-09-08T01:04:35.867Z,13.90
2023-09-08T01:07:06.242Z,13.90
2023-09-08T01:09:34.796Z,14.00
2023-09-08T01:12:05.790Z,14.00
2023-09-08T01:14:34.108Z,14.00
2023-09-08T01:17:02.518Z,14.00
2023-09-08T01:19:32.310Z,14.00
2023-09-08T01:22:23.750Z,14.00
2023-09-08T01:25:17.858Z,13.90
2023-09-08T01:27:50.286Z,14.00
2023-09-08T01:30:19.862Z,14.00
2023-09-08T01:32:48.523Z,14.00
2023-09-08T01:35:17.575Z,14.00
2023-09-08T01:37:48.197Z,14.00
2023-09-08T01:40:20.083Z,13.90
2023-09-08T01:42:48.466Z,13.90
2023-09-08T01:45:16.795Z,13.90
2023-09-08T01:47:45.161Z,13.90
2023-09-08T01:50:13.582Z,13.90
2023-09-08T01:52:41.972Z,13.80
2023-09-08T01:55:13.114Z,13.80
2023-09-08T01:57:42.884Z,13.80
2023-09-08T02:00:12.520Z,13.80
2023-09-08T02:02:43.466Z,13.80
2023-09-08T02:05:11.836Z,13.70
2023-09-08T02:07:40.318Z,13.70
2023-09-08T02:10:09.009Z,13.70
2023-09-08T02:12:37.232Z,13.70
2023-09-08T02:15:08.726Z,13.70
2023-09-08T02:17:37.158Z,13.70
2023-09-08T02:20:06.058Z,13.70
2023-09-08T02:22:34.311Z,13.70
2023-09-08T02:25:02.758Z,13.70
2023-09-08T02:27:31.374Z,13.60
2023-09-08T02:29:59.599Z,13.70
2023-09-08T02:32:29.893Z,13.70
2023-09-08T02:34:58.370Z,13.70
2023-09-08T02:37:26.706Z,13.70
2023-09-08T02:39:55.646Z,13.60
2023-09-08T02:42:24.076Z,13.60
2023-09-08T02:44:52.490Z,13.60
2023-09-08T02:47:22.402Z,13.60
2023-09-08T02:49:52.995Z,13.60
2023-09-08T02:52:21.903Z,13.60
2023-09-08T02:54:50.220Z,13.60
2023-09-08T02:57:18.628Z,13.60
2023-09-08T02:59:51.994Z,13.60
2023-09-08T03:02:20.617Z,13.60
2023-09-08T03:04:49.045Z,13.60
2023-09-08T03:07:19.173Z,13.60
2023-09-08T03:09:48.049Z,13.60
2023-09-08T03:12:16.811Z,13.60
2023-09-08T03:14:45.981Z,13.60
2023-09-08T03:17:14.534Z,13.60
2023-09-08T03:19:42.934Z,13.60
2023-09-08T03:22:11.348Z,13.60
2023-09-08T03:24:41.005Z,13.60
2023-09-08T03:27:09.445Z,13.50
2023-09-08T03:29:37.967Z,13.50
2023-09-08T03:32:07.911Z,13.50
2023-09-08T03:34:40.841Z,13.50
2023-09-08T03:37:09.765Z,13.50
2023-09-08T03:39:38.050Z,13.40
2023-09-08T03:42:08.214Z,13.40
2023-09-08T03:44:36.582Z,13.40
2023-09-08T03:47:05.409Z,13.40
2023-09-08T03:49:34.301Z,13.40
2023-09-08T03:52:02.932Z,13.40
2023-09-08T03:54:32.721Z,13.40
2023-09-08T03:57:01.025Z,13.40
2023-09-08T03:59:30.806Z,13.40
2023-09-08T04:01:59.223Z,13.40
2023-09-08T04:04:27.520Z,13.40
2023-09-08T04:06:55.778Z,13.40
2023-09-08T04:09:24.194Z,13.40
2023-09-08T04:11:52.482Z,13.30
2023-09-08T04:14:20.859Z,13.40
2023-09-08T04:16:50.483Z,13.40
2023-09-08T04:19:18.835Z,13.30
2023-09-08T04:21:47.200Z,13.40
2023-09-08T04:24:15.645Z,13.30
2023-09-08T04:26:43.950Z,13.40
2023-09-08T04:29:12.194Z,13.30
2023-09-08T04:31:40.611Z,13.30
2023-09-08T04:34:10.431Z,13.30
2023-09-08T04:36:38.761Z,13.40
2023-09-08T04:39:10.146Z,13.40
2023-09-08T04:41:38.622Z,13.40
2023-09-08T04:44:07.631Z,13.40
2023-09-08T04:46:37.160Z,13.50
2023-09-08T04:49:06.198Z,13.60
2023-09-08T04:51:36.992Z,13.60
2023-09-08T04:54:06.721Z,13.70
2023-09-08T04:56:35.151Z,13.70
2023-09-08T04:59:03.521Z,13.80
2023-09-08T05:01:33.879Z,13.80
2023-09-08T05:04:04.250Z,13.90
2023-09-08T05:06:33.352Z,13.90
2023-09-08T05:09:03.098Z,14.00
2023-09-08T05:11:32.943Z,14.10
2023-09-08T05:14:01.504Z,14.10
2023-09-08T05:16:40.578Z,14.20
2023-09-08T05:19:12.454Z,14.20
2023-09-08T05:21:41.146Z,14.20
2023-09-08T05:24:11.427Z,14.30
2023-09-08T05:26:40.859Z,14.40
2023-09-08T05:29:09.326Z,14.40
2023-09-08T05:31:37.634Z,14.50
2023-09-08T05:34:06.313Z,14.60
2023-09-08T05:36:37.094Z,14.60
2023-09-08T05:39:06.500Z,14.80
2023-09-08T05:41:37.258Z,14.90
2023-09-08T05:44:07.142Z,15.10
2023-09-08T05:46:35.742Z,15.20
2023-09-08T05:49:04.501Z,15.40
2023-09-08T05:51:34.229Z,15.60
2023-09-08T05:54:03.903Z,15.80
2023-09-08T05:56:33.015Z,16.00
2023-09-08T05:59:03.166Z,16.20
2023-09-08T06:01:33.984Z,16.40
2023-09-08T06:04:04.761Z,16.70
2023-09-08T06:06:33.707Z,17.10
2023-09-08T06:09:02.238Z,17.50
2023-09-08T06:11:30.565Z,18.20
2023-09-08T06:14:00.559Z,19.30
2023-09-08T06:16:34.964Z,20.00
2023-09-08T06:19:04.481Z,20.70
2023-09-08T06:21:33.721Z,21.50
2023-09-08T06:24:02.320Z,21.70
2023-09-08T06:26:30.853Z,22.40
2023-09-08T06:28:59.725Z,23.00
2023-09-08T06:31:28.048Z,23.30
2023-09-08T06:33:58.111Z,23.20
2023-09-08T06:36:26.624Z,23.60
2023-09-08T06:38:55.509Z,24.00
2023-09-08T06:41:24.981Z,24.00
2023-09-08T06:43:55.252Z,24.50
2023-09-08T06:46:24.929Z,23.90
2023-09-08T06:48:53.270Z,23.40
2023-09-08T06:51:23.286Z,23.30
2023-09-08T06:53:57.678Z,23.30
2023-09-08T06:56:29.725Z,23.40
2023-09-08T06:59:00.003Z,24.00
2023-09-08T07:01:28.900Z,24.60
2023-09-08T07:03:57.441Z,24.90
2023-09-08T07:06:27.449Z,25.10
2023-09-08T07:08:57.186Z,25.50
2023-09-08T07:11:25.643Z,25.80
2023-09-08T07:13:54.153Z,25.90
2023-09-08T07:16:22.580Z,25.70
2023-09-08T07:18:52.136Z,25.90
2023-09-08T07:21:20.365Z,26.20
2023-09-08T07:23:50.320Z,26.50
2023-09-08T07:26:19.033Z,26.30
2023-09-08T07:28:48.262Z,26.50
2023-09-08T07:31:18.039Z,27.00
2023-09-08T07:33:49.504Z,27.60
2023-09-08T07:36:18.176Z,27.60
2023-09-08T07:38:48.997Z,27.80
2023-09-08T07:41:17.746Z,27.80
2023-09-08T07:43:47.106Z,27.90
2023-09-08T07:46:19.330Z,28.10
2023-09-08T07:48:47.586Z,28.00
2023-09-08T07:51:15.938Z,27.80
2023-09-08T07:53:44.359Z,27.40
2023-09-08T07:56:14.189Z,27.90
2023-09-08T07:58:42.614Z,27.90
2023-09-08T08:01:11.081Z,28.40
2023-09-08T08:03:39.533Z,28.10
2023-09-08T08:06:07.933Z,27.60
2023-09-08T08:08:39.635Z,27.90
2023-09-08T08:11:14.182Z,28.00
2023-09-08T08:13:42.861Z,27.90
2023-09-08T08:16:11.837Z,27.70
2023-09-08T08:18:40.579Z,27.60
2023-09-08T08:21:09.307Z,27.20
2023-09-08T08:23:40.066Z,26.80
2023-09-08T08:26:08.921Z,27.20
2023-09-08T08:28:38.688Z,27.10
2023-09-08T08:31:07.092Z,27.00
2023-09-08T08:33:35.436Z,27.20
2023-09-08T08:36:04.859Z,27.40
2023-09-08T08:38:34.264Z,27.20
2023-09-08T08:41:06.728Z,27.00
2023-09-08T08:43:35.281Z,26.80
2023-09-08T08:46:06.398Z,26.70
2023-09-08T08:48:35.932Z,26.60
2023-09-08T08:51:04.950Z,26.40
2023-09-08T08:53:34.812Z,26.10
2023-09-08T08:56:03.401Z,26.10
2023-09-08T08:58:32.118Z,26.00
2023-09-08T09:01:02.153Z,25.80
2023-09-08T09:03:33.595Z,25.60
2023-09-08T09:06:02.299Z,25.50
2023-09-08T09:08:31.247Z,25.80
2023-09-08T09:10:59.955Z,26.10
2023-09-08T09:13:28.253Z,26.40
2023-09-08T09:16:01.512Z,26.50
2023-09-08T09:18:31.963Z,26.60
2023-09-08T09:21:02.161Z,26.40
2023-09-08T09:23:31.299Z,26.30
2023-09-08T09:26:00.197Z,26.40
2023-09-08T09:28:31.466Z,26.20
2023-09-08T09:31:00.739Z,26.10
2023-09-08T09:33:32.191Z,25.90
2023-09-08T09:36:00.666Z,25.90
2023-09-08T09:38:29.855Z,25.90
2023-09-08T09:40:58.530Z,25.90
2023-09-08T09:43:30.260Z,26.00
2023-09-08T09:45:58.670Z,26.10
2023-09-08T09:48:27.086Z,25.90
2023-09-08T09:50:56.851Z,26.00
2023-09-08T09:53:25.866Z,26.10
2023-09-08T09:55:54.483Z,26.20
2023-09-08T09:58:23.976Z,26.00
2023-09-08T10:00:53.474Z,26.10
2023-09-08T10:03:22.170Z,26.10
2023-09-08T10:05:50.917Z,26.20
2023-09-08T10:08:20.656Z,26.40
2023-09-08T10:10:49.364Z,26.70
2023-09-08T10:13:23.711Z,26.80
2023-09-08T10:15:54.327Z,26.60
2023-09-08T10:18:24.278Z,26.40
2023-09-08T10:20:55.749Z,26.40
2023-09-08T10:23:33.965Z,26.80
2023-09-08T10:26:08.108Z,26.80
2023-09-08T10:28:38.497Z,27.00
2023-09-08T10:31:09.101Z,27.20
2023-09-08T10:33:39.516Z,27.30
2023-09-08T10:36:08.863Z,27.40
2023-09-08T10:38:38.985Z,27.10
2023-09-08T10:41:32.765Z,27.40
2023-09-08T10:44:06.115Z,27.40
2023-09-08T10:46:36.341Z,27.50
2023-09-08T10:49:08.298Z,27.60
2023-09-08T10:51:38.767Z,27.20
2023-09-08T10:54:08.597Z,27.00
2023-09-08T10:56:51.912Z,27.00
2023-09-08T10:59:20.378Z,27.30
2023-09-08T11:01:50.091Z,27.70
2023-09-08T11:04:20.604Z,28.00
2023-09-08T11:06:49.344Z,28.20
2023-09-08T11:09:18.987Z,28.10
2023-09-08T11:11:47.756Z,28.20
2023-09-08T11:14:16.882Z,28.10
2023-09-08T11:16:45.565Z,28.20
2023-09-08T11:19:13.967Z,28.10
2023-09-08T11:21:42.744Z,28.20
2023-09-08T11:24:15.568Z,28.60
2023-09-08T11:26:47.720Z,28.40
2023-09-08T11:29:16.241Z,28.60
2023-09-08T11:31:45.361Z,28.30
2023-09-08T11:34:15.881Z,28.20
2023-09-08T11:36:44.372Z,28.00
2023-09-08T11:39:12.781Z,28.00
2023-09-08T11:41:41.390Z,27.90
2023-09-08T11:44:11.102Z,28.10
2023-09-08T11:46:40.458Z,28.30
2023-09-08T11:49:08.931Z,28.60
2023-09-08T11:51:39.029Z,28.70
2023-09-08T11:54:07.911Z,28.50
2023-09-08T11:56:36.351Z,28.40
2023-09-08T11:59:05.960Z,28.30
2023-09-08T12:01:35.970Z,28.10
2023-09-08T12:04:04.698Z,28.20
2023-09-08T12:06:33.122Z,28.10
2023-09-08T12:09:04.484Z,28.00
2023-09-08T12:11:36.008Z,27.70
2023-09-08T12:14:04.708Z,27.10
2023-09-08T12:16:33.125Z,27.30
2023-09-08T12:19:03.073Z,27.30
2023-09-08T12:21:33.096Z,27.30
2023-09-08T12:24:01.522Z,27.30
2023-09-08T12:26:31.247Z,27.20
2023-09-08T12:28:59.592Z,27.20
2023-09-08T12:31:27.979Z,27.10
2023-09-08T12:33:58.410Z,27.10
2023-09-08T12:36:28.200Z,27.10
2023-09-08T12:38:57.463Z,27.20
2023-09-08T12:41:25.956Z,27.10
2023-09-08T12:43:54.146Z,27.00
2023-09-08T12:46:22.736Z,26.80
2023-09-08T12:48:51.266Z,26.90
2023-09-08T12:51:19.586Z,26.90
2023-09-08T12:53:49.253Z,27.00
2023-09-08T12:56:19.439Z,27.00
2023-09-08T12:58:48.244Z,27.20
2023-09-08T13:01:16.501Z,27.30
2023-09-08T13:03:44.873Z,27.30
2023-09-08T13:06:13.247Z,27.40
2023-09-08T13:08:41.681Z,27.40
2023-09-08T13:11:11.303Z,27.30
2023-09-08T13:13:39.674Z,27.10
2023-09-08T13:16:07.978Z,27.20
2023-09-08T13:18:39.683Z,27.20
2023-09-08T13:21:08.014Z,27.30
2023-09-08T13:23:36.272Z,27.30
2023-09-08T13:26:04.637Z,27.30
2023-09-08T13:28:34.529Z,27.30
2023-09-08T13:31:03.217Z,27.40
2023-09-08T13:33:31.541Z,27.30
2023-09-08T13:36:00.040Z,27.20
2023-09-08T13:38:28.343Z,27.30
2023-09-08T13:40:56.715Z,27.10
2023-09-08T13:43:25.077Z,27.10
2023-09-08T13:45:54.770Z,27.10
2023-09-08T13:48:25.048Z,27.00
2023-09-08T13:50:55.443Z,26.90
2023-09-08T13:53:29.585Z,26.80
2023-09-08T13:56:10.091Z,26.70
2023-09-08T13:58:47.925Z,26.60
2023-09-08T14:01:20.590Z,26.50
2023-09-08T14:06:30.585Z,26.50
2023-09-08T14:14:02.507Z,26.40
2023-09-08T14:16:32.397Z,26.40
2023-09-08T14:19:00.930Z,26.30
2023-09-08T14:21:30.710Z,26.30
2023-09-08T14:23:59.207Z,26.30
2023-09-08T14:26:27.936Z,26.30
2023-09-08T14:28:56.209Z,26.30
2023-09-08T14:31:24.645Z,26.20
2023-09-08T14:33:54.388Z,26.30
2023-09-08T14:36:22.642Z,26.20
2023-09-08T14:38:50.972Z,26.20
2023-09-08T14:41:19.467Z,26.10
2023-09-08T14:43:47.766Z,26.10
2023-09-08T14:46:16.013Z,26.00
2023-09-08T14:48:44.675Z,26.10
2023-09-08T14:51:15.085Z,26.10
2023-09-08T14:53:44.309Z,26.00
2023-09-08T14:56:12.744Z,26.00
2023-09-08T14:58:40.946Z,25.90
2023-09-08T15:01:09.778Z,25.90
2023-09-08T15:03:38.341Z,25.90
2023-09-08T15:06:07.108Z,25.90
2023-09-08T15:08:36.966Z,25.90
2023-09-08T15:11:05.435Z,25.90
2023-09-08T15:13:33.927Z,25.90
2023-09-08T15:16:02.343Z,25.80
2023-09-08T15:18:30.723Z,25.80
2023-09-08T15:20:59.116Z,25.80
2023-09-08T15:23:27.655Z,25.70
2023-09-08T15:25:58.863Z,25.70
2023-09-08T15:28:27.802Z,25.70
2023-09-08T15:30:57.000Z,25.50
2023-09-08T15:33:25.939Z,25.40
2023-09-08T15:35:55.991Z,25.40
2023-09-08T15:38:24.900Z,25.30
2023-09-08T15:41:20.306Z,25.20
2023-09-08T15:43:53.373Z,25.20
2023-09-08T15:46:22.047Z,25.10
2023-09-08T15:48:50.470Z,25.10
2023-09-08T15:51:18.781Z,25.00
2023-09-08T15:53:47.378Z,25.00
2023-09-08T15:56:17.127Z,24.90
2023-09-08T15:58:45.499Z,24.80
2023-09-08T16:01:14.140Z,24.60
2023-09-08T16:03:42.963Z,24.50
2023-09-08T16:06:13.837Z,24.40
2023-09-08T16:08:42.443Z,24.30
2023-09-08T16:11:10.728Z,24.10
2023-09-08T16:13:40.369Z,24.00
2023-09-08T16:16:08.672Z,23.80
2023-09-08T16:18:37.026Z,23.70
2023-09-08T16:21:05.573Z,23.50
2023-09-08T16:23:34.217Z,23.40
2023-09-08T16:26:02.996Z,23.30
2023-09-08T16:28:31.210Z,23.10
2023-09-08T16:31:05.585Z,23.00
2023-09-08T16:33:34.578Z,22.90
2023-09-08T16:36:03.261Z,22.80
2023-09-08T16:38:34.120Z,22.60
2023-09-08T16:41:02.450Z,22.50
2023-09-08T16:43:30.904Z,22.40
2023-09-08T16:46:00.633Z,22.20
2023-09-08T16:48:29.017Z,22.10
2023-09-08T16:50:57.499Z,22.00
2023-09-08T16:53:25.872Z,21.80
2023-09-08T16:55:54.359Z,21.70
2023-09-08T16:58:22.809Z,21.60
2023-09-08T17:00:51.198Z,21.50
2023-09-08T17:03:21.232Z,21.30
2023-09-08T17:05:49.726Z,21.20
2023-09-08T17:08:18.040Z,21.10
2023-09-08T17:10:49.078Z,21.00
2023-09-08T17:13:17.448Z,20.90
2023-09-08T17:15:45.745Z,20.80
2023-09-08T17:18:14.246Z,20.70
2023-09-08T17:20:44.567Z,20.50
2023-09-08T17:23:12.959Z,20.40
2023-09-08T17:25:41.324Z,20.30
2023-09-08T17:28:09.891Z,20.20
2023-09-08T17:30:38.260Z,20.20
2023-09-08T17:33:06.831Z,20.10
2023-09-08T17:35:37.381Z,19.90
2023-09-08T17:38:07.965Z,19.90
2023-09-08T17:40:36.708Z,19.80
2023-09-08T17:43:05.112Z,19.70
2023-09-08T17:45:33.914Z,19.60
2023-09-08T17:48:02.653Z,19.50
2023-09-08T17:50:31.045Z,19.50
2023-09-08T17:52:59.545Z,19.40
2023-09-08T17:55:29.240Z,19.30
2023-09-08T17:57:58.151Z,19.20
2023-09-08T18:00:26.930Z,19.10
2023-09-08T18:02:55.337Z,19.10
2023-09-08T18:05:23.934Z,19.00
2023-09-08T18:07:52.555Z,18.90
2023-09-08T18:10:21.211Z,18.90
2023-09-08T18:12:50.980Z,18.80
2023-09-08T18:15:19.420Z,18.70
2023-09-08T18:17:48.890Z,18.60
2023-09-08T18:20:17.308Z,18.60
2023-09-08T18:22:45.687Z,18.50
2023-09-08T18:25:14.021Z,18.50
2023-09-08T18:27:42.243Z,18.40
2023-09-08T18:30:12.905Z,18.40
2023-09-08T18:32:41.607Z,18.30
2023-09-08T18:35:10.707Z,18.20
2023-09-08T18:37:39.100Z,18.20
2023-09-08T18:40:11.295Z,18.10
2023-09-08T18:42:40.602Z,18.10
2023-09-08T18:45:11.437Z,18.10
2023-09-08T18:47:39.701Z,18.00
2023-09-08T18:50:09.209Z,17.90
2023-09-08T18:52:37.620Z,17.90
2023-09-08T18:55:06.768Z,17.80
2023-09-08T18:57:35.076Z,17.80
2023-09-08T19:00:04.597Z,17.70
2023-09-08T19:02:34.787Z,17.60
2023-09-08T19:05:03.536Z,17.60
2023-09-08T19:07:34.220Z,17.50
2023-09-08T19:10:04.099Z,17.50
2023-09-08T19:12:33.004Z,17.40
2023-09-08T19:15:01.495Z,17.40
2023-09-08T19:17:29.860Z,17.30
2023-09-08T19:20:00.050Z,17.30
2023-09-08T19:22:28.469Z,17.20
2023-09-08T19:24:56.853Z,17.20
2023-09-08T19:27:25.282Z,17.10
2023-09-08T19:29:53.992Z,17.10
2023-09-08T19:32:22.423Z,17.00
2023-09-08T19:34:52.115Z,17.00
2023-09-08T19:37:22.115Z,16.90
2023-09-08T19:39:50.840Z,16.80
2023-09-08T19:42:19.212Z,16.80
2023-09-08T19:44:47.450Z,16.70
2023-09-08T19:47:15.902Z,16.70
2023-09-08T19:49:44.357Z,16.70
2023-09-08T19:52:13.812Z,16.60
2023-09-08T19:54:43.707Z,16.60
2023-09-08T19:57:12.102Z,16.50
2023-09-08T19:59:41.408Z,16.50
2023-09-08T20:02:09.935Z,16.50
2023-09-08T20:04:38.671Z,16.50
2023-09-08T20:07:07.166Z,16.40
2023-09-08T20:09:35.504Z,16.30
2023-09-08T20:12:05.687Z,16.20
2023-09-08T20:14:34.103Z,16.20
2023-09-08T20:17:03.168Z,16.20
2023-09-08T20:19:31.611Z,16.10
2023-09-08T20:22:00.565Z,16.10
2023-09-08T20:24:28.822Z,16.10
2023-09-08T20:26:57.085Z,16.10
2023-09-08T20:29:29.390Z,16.00
2023-09-08T20:31:58.750Z,16.00
2023-09-08T20:34:27.192Z,15.90
2023-09-08T20:36:56.157Z,15.80
2023-09-08T20:39:25.007Z,15.80
2023-09-08T20:41:53.429Z,15.80
2023-09-08T20:44:21.742Z,15.80
2023-09-08T20:46:51.502Z,15.70
2023-09-08T20:49:19.897Z,15.70
2023-09-08T20:51:48.180Z,15.60
2023-09-08T20:54:16.434Z,15.60
2023-09-08T20:56:44.643Z,15.60
2023-09-08T20:59:12.912Z,15.50
2023-09-08T21:01:41.897Z,15.50
2023-09-08T21:04:11.751Z,15.40
2023-09-08T21:06:40.064Z,15.40
2023-09-08T21:09:08.810Z,15.40
2023-09-08T21:11:37.082Z,15.30
2023-09-08T21:14:07.985Z,15.30
2023-09-08T21:16:36.476Z,15.20
2023-09-08T21:19:05.297Z,15.20
2023-09-08T21:21:34.974Z,15.20
2023-09-08T21:24:03.312Z,15.20
2023-09-08T21:26:31.597Z,15.10
2023-09-08T21:28:59.888Z,15.10
2023-09-08T21:31:28.292Z,15.00
2023-09-08T21:33:56.703Z,15.00
2023-09-08T21:36:25.141Z,14.90
2023-09-08T21:38:56.576Z,14.80
2023-09-08T21:41:25.582Z,14.80
2023-09-08T21:43:53.825Z,14.80
2023-09-08T21:46:22.483Z,14.70
2023-09-08T21:48:50.877Z,14.70
2023-09-08T21:51:19.252Z,14.70
2023-09-08T21:53:47.564Z,14.70
2023-09-08T21:56:17.618Z,14.70
2023-09-08T21:58:45.933Z,14.70
2023-09-08T22:01:14.258Z,14.50
2023-09-08T22:03:42.979Z,14.50
2023-09-08T22:06:11.608Z,14.40
2023-09-08T22:08:40.141Z,14.30
2023-09-08T22:11:08.569Z,14.40
2023-09-08T22:13:38.549Z,14.30
2023-09-08T22:16:06.926Z,14.20
2023-09-08T22:18:35.841Z,14.20
2023-09-08T22:21:05.265Z,14.30
2023-09-08T22:23:34.256Z,14.20
2023-09-08T22:26:03.380Z,14.20
2023-09-08T22:28:31.677Z,14.20
2023-09-08T22:31:01.482Z,14.20
2023-09-08T22:33:30.792Z,14.10
2023-09-08T22:35:59.653Z,14.10
2023-09-08T22:38:28.179Z,14.10
2023-09-08T22:40:56.463Z,14.10
2023-09-08T22:43:24.799Z,14.00
2023-09-08T22:45:53.254Z,14.00
2023-09-08T22:48:23.618Z,14.00
2023-09-08T22:50:52.307Z,14.00
2023-09-08T22:53:21.008Z,14.00
2023-09-08T22:55:51.717Z,14.00
2023-09-08T22:58:20.351Z,13.90
2023-09-08T23:00:48.696Z,13.90
2023-09-08T23:03:17.043Z,13.90
2023-09-08T23:05:46.703Z,13.90
2023-09-08T23:08:14.960Z,13.90
2023-09-08T23:10:43.292Z,13.90
2023-09-08T23:13:11.556Z,13.80
2023-09-08T23:15:39.764Z,13.80
2023-09-08T23:18:10.836Z,13.80
2023-09-08T23:20:42.256Z,13.80
2023-09-08T23:23:11.929Z,13.80
2023-09-08T23:25:40.127Z,13.80
2023-09-08T23:28:08.568Z,13.80
2023-09-08T23:30:37.118Z,13.70
2023-09-08T23:33:07.205Z,13.70
2023-09-08T23:35:35.610Z,13.70
2023-09-08T23:38:04.051Z,13.70
2023-09-08T23:40:34.020Z,13.60
2023-09-08T23:43:02.220Z,13.60
2023-09-08T23:45:30.446Z,13.60
2023-09-08T23:47:58.678Z,13.60
2023-09-08T23:50:50.492Z,13.60
2023-09-08T23:53:19.357Z,13.60
2023-09-08T23:55:49.986Z,13.60
2023-09-08T23:58:20.511Z,13.50
